sensor_id;sensor_type;location;lat;lon;timestamp;pressure;altitude;pressure_sealevel;temperature;humidity
29371;BME280;16357;52.188;7.838;2023-05-20T00:00:15;101711.19;;;17.07;42.55
29371;BME280;16357;52.188;7.838;2023-05-20T00:02:41;101713.56;;;17.02;42.72
29371;BME280;16357;52.188;7.838;2023-05-20T00:05:08;101726.78;;;16.97;42.70
29371;BME280;16357;52.188;7.838;2023-05-20T00:07:34;101722.91;;;16.91;42.82
29371;BME280;16357;52.188;7.838;2023-05-20T00:10:01;101728.00;;;16.86;43.04
29371;BME280;16357;52.188;7.838;2023-05-20T00:12:27;101722.28;;;16.81;43.29
29371;BME280;16357;52.188;7.838;2023-05-20T00:14:54;101726.66;;;16.74;43.35
29371;BME280;16357;52.188;7.838;2023-05-20T00:17:21;101727.34;;;16.67;43.69
29371;BME280;16357;52.188;7.838;2023-05-20T00:19:47;101730.91;;;16.60;43.56
29371;BME280;16357;52.188;7.838;2023-05-20T00:22:14;101727.03;;;16.54;43.96
29371;BME280;16357;52.188;7.838;2023-05-20T00:24:40;101733.13;;;16.48;44.14
29371;BME280;16357;52.188;7.838;2023-05-20T00:27:07;101727.56;;;16.41;44.17
29371;BME280;16357;52.188;7.838;2023-05-20T00:29:33;101727.38;;;16.35;44.47
29371;BME280;16357;52.188;7.838;2023-05-20T00:32:00;101727.22;;;16.28;44.42
29371;BME280;16357;52.188;7.838;2023-05-20T00:34:27;101736.88;;;16.22;44.63
29371;BME280;16357;52.188;7.838;2023-05-20T00:36:53;101734.81;;;16.16;44.92
29371;BME280;16357;52.188;7.838;2023-05-20T00:39:20;101730.09;;;16.10;44.85
29371;BME280;16357;52.188;7.838;2023-05-20T00:41:46;101720.78;;;16.05;45.38
29371;BME280;16357;52.188;7.838;2023-05-20T00:44:13;101729.41;;;16.00;45.23
29371;BME280;16357;52.188;7.838;2023-05-20T00:46:39;101731.75;;;15.95;45.27
29371;BME280;16357;52.188;7.838;2023-05-20T00:49:05;101722.31;;;15.91;45.39
29371;BME280;16357;52.188;7.838;2023-05-20T00:51:33;101726.53;;;15.85;45.78
29371;BME280;16357;52.188;7.838;2023-05-20T00:53:59;101725.16;;;15.81;45.96
29371;BME280;16357;52.188;7.838;2023-05-20T00:56:26;101727.50;;;15.76;45.92
29371;BME280;16357;52.188;7.838;2023-05-20T00:58:53;101715.50;;;15.70;46.17
29371;BME280;16357;52.188;7.838;2023-05-20T01:01:19;101720.38;;;15.67;46.13
29371;BME280;16357;52.188;7.838;2023-05-20T01:03:46;101714.44;;;15.63;46.39
29371;BME280;16357;52.188;7.838;2023-05-20T01:06:14;101722.88;;;15.60;46.37
29371;BME280;16357;52.188;7.838;2023-05-20T01:08:40;101709.00;;;15.55;46.56
29371;BME280;16357;52.188;7.838;2023-05-20T01:11:10;101714.75;;;15.52;46.36
29371;BME280;16357;52.188;7.838;2023-05-20T01:13:46;101709.69;;;15.49;46.61
29371;BME280;16357;52.188;7.838;2023-05-20T01:16:16;101711.00;;;15.45;46.87
29371;BME280;16357;52.188;7.838;2023-05-20T01:18:45;101724.84;;;15.42;46.98
29371;BME280;16357;52.188;7.838;2023-05-20T01:21:16;101721.78;;;15.36;47.40
29371;BME280;16357;52.188;7.838;2023-05-20T01:23:43;101714.03;;;15.33;47.38
29371;BME280;16357;52.188;7.838;2023-05-20T01:26:10;101713.31;;;15.31;47.53
29371;BME280;16357;52.188;7.838;2023-05-20T01:28:40;101714.50;;;15.29;47.36
29371;BME280;16357;52.188;7.838;2023-05-20T01:31:26;101717.38;;;15.27;47.37
29371;BME280;16357;52.188;7.838;2023-05-20T01:33:55;101718.72;;;15.23;47.69
29371;BME280;16357;52.188;7.838;2023-05-20T01:36:24;101712.63;;;15.21;47.63
29371;BME280;16357;52.188;7.838;2023-05-20T01:38:53;101711.06;;;15.19;47.87
29371;BME280;16357;52.188;7.838;2023-05-20T01:41:20;101717.66;;;15.16;48.20
29371;BME280;16357;52.188;7.838;2023-05-20T01:43:49;101715.28;;;15.13;48.12
29371;BME280;16357;52.188;7.838;2023-05-20T01:46:15;101725.59;;;15.09;48.08
29371;BME280;16357;52.188;7.838;2023-05-20T01:48:42;101718.66;;;15.07;48.36
29371;BME280;16357;52.188;7.838;2023-05-20T01:51:08;101715.41;;;15.03;48.36
29371;BME280;16357;52.188;7.838;2023-05-20T01:53:35;101712.03;;;15.01;48.00
29371;BME280;16357;52.188;7.838;2023-05-20T01:56:01;101708.63;;;14.99;48.76
29371;BME280;16357;52.188;7.838;2023-05-20T01:58:28;101704.41;;;14.97;48.60
29371;BME280;16357;52.188;7.838;2023-05-20T02:00:54;101708.28;;;14.94;48.77
29371;BME280;16357;52.188;7.838;2023-05-20T02:03:21;101713.00;;;14.92;48.86
29371;BME280;16357;52.188;7.838;2023-05-20T02:05:47;101707.06;;;14.88;48.99
29371;BME280;16357;52.188;7.838;2023-05-20T02:08:14;101712.81;;;14.85;49.15
29371;BME280;16357;52.188;7.838;2023-05-20T02:10:40;101710.41;;;14.82;49.25
29371;BME280;16357;52.188;7.838;2023-05-20T02:13:07;101716.13;;;14.79;49.10
29371;BME280;16357;52.188;7.838;2023-05-20T02:15:33;101719.16;;;14.76;49.17
29371;BME280;16357;52.188;7.838;2023-05-20T02:18:00;101716.78;;;14.73;49.19
29371;BME280;16357;52.188;7.838;2023-05-20T02:20:27;101708.16;;;14.69;49.28
29371;BME280;16357;52.188;7.838;2023-05-20T02:22:54;101703.75;;;14.68;49.26
29371;BME280;16357;52.188;7.838;2023-05-20T02:25:20;101705.91;;;14.65;49.25
29371;BME280;16357;52.188;7.838;2023-05-20T02:27:46;101710.63;;;14.63;49.53
29371;BME280;16357;52.188;7.838;2023-05-20T02:30:13;101702.00;;;14.59;49.74
29371;BME280;16357;52.188;7.838;2023-05-20T02:32:40;101709.41;;;14.57;49.84
29371;BME280;16357;52.188;7.838;2023-05-20T02:35:07;101700.81;;;14.54;49.68
29371;BME280;16357;52.188;7.838;2023-05-20T02:37:34;101711.00;;;14.50;49.73
29371;BME280;16357;52.188;7.838;2023-05-20T02:40:00;101702.41;;;14.46;50.24
29371;BME280;16357;52.188;7.838;2023-05-20T02:42:28;101708.13;;;14.43;49.86
29371;BME280;16357;52.188;7.838;2023-05-20T02:44:54;101706.72;;;14.39;50.09
29371;BME280;16357;52.188;7.838;2023-05-20T02:47:24;101709.75;;;14.36;50.06
29371;BME280;16357;52.188;7.838;2023-05-20T02:49:51;101701.13;;;14.33;50.01
29371;BME280;16357;52.188;7.838;2023-05-20T02:52:17;101708.34;;;14.32;50.24
29371;BME280;16357;52.188;7.838;2023-05-20T02:54:43;101706.81;;;14.30;50.09
29371;BME280;16357;52.188;7.838;2023-05-20T02:57:10;101704.28;;;14.28;50.43
29371;BME280;16357;52.188;7.838;2023-05-20T02:59:36;101707.13;;;14.26;50.34
29371;BME280;16357;52.188;7.838;2023-05-20T03:02:03;101702.88;;;14.24;50.37
29371;BME280;16357;52.188;7.838;2023-05-20T03:04:30;101713.03;;;14.22;50.44
29371;BME280;16357;52.188;7.838;2023-05-20T03:06:57;101700.69;;;14.19;50.49
29371;BME280;16357;52.188;7.838;2023-05-20T03:09:23;101708.09;;;14.17;50.50
29371;BME280;16357;52.188;7.838;2023-05-20T03:11:50;101704.69;;;14.15;50.73
29371;BME280;16357;52.188;7.838;2023-05-20T03:14:16;101704.84;;;14.14;50.86
29371;BME280;16357;52.188;7.838;2023-05-20T03:16:43;101714.09;;;14.11;50.60
29371;BME280;16357;52.188;7.838;2023-05-20T03:19:09;101709.88;;;14.09;50.75
29371;BME280;16357;52.188;7.838;2023-05-20T03:21:36;101711.03;;;14.06;51.03
29371;BME280;16357;52.188;7.838;2023-05-20T03:24:02;101705.91;;;14.03;50.99
29371;BME280;16357;52.188;7.838;2023-05-20T03:26:29;101717.03;;;14.00;51.10
29371;BME280;16357;52.188;7.838;2023-05-20T03:28:58;101713.81;;;13.96;51.22
29371;BME280;16357;52.188;7.838;2023-05-20T03:31:24;101716.81;;;13.93;51.45
29371;BME280;16357;52.188;7.838;2023-05-20T03:33:51;101708.03;;;13.91;51.14
29371;BME280;16357;52.188;7.838;2023-05-20T03:36:17;101709.19;;;13.89;51.39
29371;BME280;16357;52.188;7.838;2023-05-20T03:38:43;101704.94;;;13.86;51.52
29371;BME280;16357;52.188;7.838;2023-05-20T03:41:10;101713.16;;;13.84;51.44
29371;BME280;16357;52.188;7.838;2023-05-20T03:43:37;101715.19;;;13.82;51.55
29371;BME280;16357;52.188;7.838;2023-05-20T03:46:03;101715.47;;;13.79;51.62
29371;BME280;16357;52.188;7.838;2023-05-20T03:48:29;101713.94;;;13.77;52.05
29371;BME280;16357;52.188;7.838;2023-05-20T03:50:56;101713.28;;;13.75;51.76
29371;BME280;16357;52.188;7.838;2023-05-20T03:53:23;101717.13;;;13.72;52.04
29371;BME280;16357;52.188;7.838;2023-05-20T03:55:49;101709.03;;;13.72;51.76
29371;BME280;16357;52.188;7.838;2023-05-20T03:58:16;101703.78;;;13.71;51.83
29371;BME280;16357;52.188;7.838;2023-05-20T04:00:42;101713.72;;;13.70;51.62
29371;BME280;16357;52.188;7.838;2023-05-20T04:03:09;101708.47;;;13.69;51.82
29371;BME280;16357;52.188;7.838;2023-05-20T04:05:35;101703.06;;;13.69;51.74
29371;BME280;16357;52.188;7.838;2023-05-20T04:08:03;101713.88;;;13.69;52.02
29371;BME280;16357;52.188;7.838;2023-05-20T04:10:30;101707.47;;;13.70;51.97
29371;BME280;16357;52.188;7.838;2023-05-20T04:12:57;101707.47;;;13.70;51.69
29371;BME280;16357;52.188;7.838;2023-05-20T04:15:24;101708.47;;;13.69;51.86
29371;BME280;16357;52.188;7.838;2023-05-20T04:17:50;101711.03;;;13.70;51.85
29371;BME280;16357;52.188;7.838;2023-05-20T04:20:17;101719.81;;;13.72;51.79
29371;BME280;16357;52.188;7.838;2023-05-20T04:22:45;101715.25;;;13.73;51.68
29371;BME280;16357;52.188;7.838;2023-05-20T04:25:11;101716.09;;;13.73;51.72
29371;BME280;16357;52.188;7.838;2023-05-20T04:27:39;101718.34;;;13.78;51.70
29371;BME280;16357;52.188;7.838;2023-05-20T04:30:06;101724.59;;;13.78;51.33
29371;BME280;16357;52.188;7.838;2023-05-20T04:32:33;101718.19;;;13.79;51.52
29371;BME280;16357;52.188;7.838;2023-05-20T04:35:02;101718.88;;;13.81;51.11
29371;BME280;16357;52.188;7.838;2023-05-20T04:37:32;101723.13;;;13.84;51.13
29371;BME280;16357;52.188;7.838;2023-05-20T04:40:00;101723.69;;;13.88;50.90
29371;BME280;16357;52.188;7.838;2023-05-20T04:42:28;101723.38;;;13.91;50.89
29371;BME280;16357;52.188;7.838;2023-05-20T04:44:55;101721.19;;;13.94;50.68
29371;BME280;16357;52.188;7.838;2023-05-20T04:47:21;101724.44;;;13.98;50.73
29371;BME280;16357;52.188;7.838;2023-05-20T04:49:47;101715.88;;;14.02;50.18
29371;BME280;16357;52.188;7.838;2023-05-20T04:52:15;101719.13;;;14.06;50.11
29371;BME280;16357;52.188;7.838;2023-05-20T04:54:41;101714.09;;;14.11;50.22
29371;BME280;16357;52.188;7.838;2023-05-20T04:57:08;101723.44;;;14.17;49.88
29371;BME280;16357;52.188;7.838;2023-05-20T04:59:34;101723.13;;;14.20;49.64
29371;BME280;16357;52.188;7.838;2023-05-20T05:02:01;101722.47;;;14.26;49.47
29371;BME280;16357;52.188;7.838;2023-05-20T05:04:27;101718.47;;;14.30;49.34
29371;BME280;16357;52.188;7.838;2023-05-20T05:06:54;101721.69;;;14.34;49.29
29371;BME280;16357;52.188;7.838;2023-05-20T05:09:20;101712.13;;;14.39;48.81
29371;BME280;16357;52.188;7.838;2023-05-20T05:11:47;101706.25;;;14.44;48.83
29371;BME280;16357;52.188;7.838;2023-05-20T05:14:14;101717.44;;;14.49;48.43
29371;BME280;16357;52.188;7.838;2023-05-20T05:16:40;101719.69;;;14.54;48.38
29371;BME280;16357;52.188;7.838;2023-05-20T05:19:07;101707.56;;;14.58;48.21
29371;BME280;16357;52.188;7.838;2023-05-20T05:21:34;101715.19;;;14.62;47.99
29371;BME280;16357;52.188;7.838;2023-05-20T05:24:00;101715.56;;;14.67;47.99
29371;BME280;16357;52.188;7.838;2023-05-20T05:26:26;101707.84;;;14.73;47.85
29371;BME280;16357;52.188;7.838;2023-05-20T05:28:54;101712.56;;;14.79;47.86
29371;BME280;16357;52.188;7.838;2023-05-20T05:31:20;101705.88;;;14.83;47.55
29371;BME280;16357;52.188;7.838;2023-05-20T05:33:47;101706.06;;;14.89;47.25
29371;BME280;16357;52.188;7.838;2023-05-20T05:36:14;101701.00;;;14.95;47.37
29371;BME280;16357;52.188;7.838;2023-05-20T05:38:41;101690.56;;;15.00;47.10
29371;BME280;16357;52.188;7.838;2023-05-20T05:41:07;101696.47;;;15.03;46.87
29371;BME280;16357;52.188;7.838;2023-05-20T05:43:34;101690.59;;;15.08;47.17
29371;BME280;16357;52.188;7.838;2023-05-20T05:46:00;101697.38;;;15.12;46.92
29371;BME280;16357;52.188;7.838;2023-05-20T05:48:27;101694.19;;;15.17;46.68
29371;BME280;16357;52.188;7.838;2023-05-20T05:50:53;101692.84;;;15.21;46.69
29371;BME280;16357;52.188;7.838;2023-05-20T05:53:20;101690.66;;;15.24;46.38
29371;BME280;16357;52.188;7.838;2023-05-20T05:55:47;101683.91;;;15.28;46.44
29371;BME280;16357;52.188;7.838;2023-05-20T05:58:13;101694.25;;;15.33;46.43
29371;BME280;16357;52.188;7.838;2023-05-20T06:00:40;101694.75;;;15.36;46.23
29371;BME280;16357;52.188;7.838;2023-05-20T06:03:06;101700.53;;;15.42;46.07
29371;BME280;16357;52.188;7.838;2023-05-20T06:05:33;101700.19;;;15.45;46.12
29371;BME280;16357;52.188;7.838;2023-05-20T06:08:00;101691.09;;;15.46;45.72
29371;BME280;16357;52.188;7.838;2023-05-20T06:10:26;101696.16;;;15.49;45.71
29371;BME280;16357;52.188;7.838;2023-05-20T06:12:53;101692.44;;;15.50;45.70
29371;BME280;16357;52.188;7.838;2023-05-20T06:15:19;101693.13;;;15.52;45.88
29371;BME280;16357;52.188;7.838;2023-05-20T06:17:46;101698.03;;;15.56;45.90
29371;BME280;16357;52.188;7.838;2023-05-20T06:20:12;101707.50;;;15.61;45.87
29371;BME280;16357;52.188;7.838;2023-05-20T06:22:39;101692.63;;;15.65;45.60
29371;BME280;16357;52.188;7.838;2023-05-20T06:25:06;101693.03;;;15.70;45.57
29371;BME280;16357;52.188;7.838;2023-05-20T06:27:33;101688.78;;;15.75;45.30
29371;BME280;16357;52.188;7.838;2023-05-20T06:29:59;101677.47;;;15.80;45.76
29371;BME280;16357;52.188;7.838;2023-05-20T06:32:26;101684.91;;;15.86;45.39
29371;BME280;16357;52.188;7.838;2023-05-20T06:34:53;101686.09;;;15.92;45.29
29371;BME280;16357;52.188;7.838;2023-05-20T06:37:19;101682.72;;;15.98;44.79
29371;BME280;16357;52.188;7.838;2023-05-20T06:39:45;101676.63;;;16.04;44.94
29371;BME280;16357;52.188;7.838;2023-05-20T06:42:12;101680.34;;;16.11;44.47
29371;BME280;16357;52.188;7.838;2023-05-20T06:44:39;101676.13;;;16.17;44.72
29371;BME280;16357;52.188;7.838;2023-05-20T06:47:05;101672.88;;;16.21;44.40
29371;BME280;16357;52.188;7.838;2023-05-20T06:49:32;101671.34;;;16.27;44.04
29371;BME280;16357;52.188;7.838;2023-05-20T06:51:58;101668.97;;;16.32;44.73
29371;BME280;16357;52.188;7.838;2023-05-20T06:54:24;101661.19;;;16.37;44.26
29371;BME280;16357;52.188;7.838;2023-05-20T06:56:51;101656.78;;;16.44;44.33
29371;BME280;16357;52.188;7.838;2023-05-20T06:59:17;101668.78;;;16.50;44.14
29371;BME280;16357;52.188;7.838;2023-05-20T07:01:44;101662.69;;;16.56;44.35
29371;BME280;16357;52.188;7.838;2023-05-20T07:04:10;101658.25;;;16.63;44.15
29371;BME280;16357;52.188;7.838;2023-05-20T07:06:37;101660.28;;;16.70;44.24
29371;BME280;16357;52.188;7.838;2023-05-20T07:09:03;101655.84;;;16.77;44.22
29371;BME280;16357;52.188;7.838;2023-05-20T07:11:30;101652.28;;;16.84;43.82
29371;BME280;16357;52.188;7.838;2023-05-20T07:13:57;101653.13;;;16.93;43.73
29371;BME280;16357;52.188;7.838;2023-05-20T07:16:23;101655.13;;;16.99;43.39
29371;BME280;16357;52.188;7.838;2023-05-20T07:18:50;101652.38;;;17.07;43.55
29371;BME280;16357;52.188;7.838;2023-05-20T07:21:16;101656.22;;;17.13;43.00
29371;BME280;16357;52.188;7.838;2023-05-20T07:23:43;101643.00;;;17.18;42.90
29371;BME280;16357;52.188;7.838;2023-05-20T07:26:09;101649.56;;;17.24;43.16
29371;BME280;16357;52.188;7.838;2023-05-20T07:28:37;101643.44;;;17.30;42.83
29371;BME280;16357;52.188;7.838;2023-05-20T07:31:03;101652.72;;;17.36;42.83
29371;BME280;16357;52.188;7.838;2023-05-20T07:33:30;101639.28;;;17.42;42.57
29371;BME280;16357;52.188;7.838;2023-05-20T07:35:56;101637.72;;;17.48;42.74
29371;BME280;16357;52.188;7.838;2023-05-20T07:38:23;101649.53;;;17.55;42.54
29371;BME280;16357;52.188;7.838;2023-05-20T07:40:50;101642.56;;;17.61;41.90
29371;BME280;16357;52.188;7.838;2023-05-20T07:43:16;101637.63;;;17.64;42.45
29371;BME280;16357;52.188;7.838;2023-05-20T07:45:42;101649.78;;;17.68;41.88
29371;BME280;16357;52.188;7.838;2023-05-20T07:48:09;101633.34;;;17.70;41.93
29371;BME280;16357;52.188;7.838;2023-05-20T07:50:36;101631.09;;;17.73;41.42
29371;BME280;16357;52.188;7.838;2023-05-20T07:53:02;101644.28;;;17.76;42.09
29371;BME280;16357;52.188;7.838;2023-05-20T07:55:29;101633.28;;;17.78;41.89
29371;BME280;16357;52.188;7.838;2023-05-20T07:57:56;101639.19;;;17.82;41.80
29371;BME280;16357;52.188;7.838;2023-05-20T08:00:23;101631.72;;;17.84;41.54
29371;BME280;16357;52.188;7.838;2023-05-20T08:02:49;101639.03;;;17.83;41.73
29371;BME280;16357;52.188;7.838;2023-05-20T08:05:16;101632.56;;;17.84;41.60
29371;BME280;16357;52.188;7.838;2023-05-20T08:07:42;101645.13;;;17.85;41.64
29371;BME280;16357;52.188;7.838;2023-05-20T08:10:09;101620.34;;;17.88;41.96
29371;BME280;16357;52.188;7.838;2023-05-20T08:12:35;101627.72;;;17.94;41.74
29371;BME280;16357;52.188;7.838;2023-05-20T08:15:03;101628.69;;;18.02;41.66
29371;BME280;16357;52.188;7.838;2023-05-20T08:17:29;101620.47;;;18.10;41.76
29371;BME280;16357;52.188;7.838;2023-05-20T08:19:55;101628.53;;;18.18;41.44
29371;BME280;16357;52.188;7.838;2023-05-20T08:22:22;101634.91;;;18.25;41.29
29371;BME280;16357;52.188;7.838;2023-05-20T08:24:48;101610.38;;;18.33;40.81
29371;BME280;16357;52.188;7.838;2023-05-20T08:27:15;101610.09;;;18.43;41.39
29371;BME280;16357;52.188;7.838;2023-05-20T08:29:43;101615.25;;;18.53;41.77
29371;BME280;16357;52.188;7.838;2023-05-20T08:32:10;101607.66;;;18.63;41.27
29371;BME280;16357;52.188;7.838;2023-05-20T08:34:36;101621.81;;;18.73;41.27
29371;BME280;16357;52.188;7.838;2023-05-20T08:37:03;101611.13;;;18.86;40.71
29371;BME280;16357;52.188;7.838;2023-05-20T08:39:30;101613.56;;;18.96;40.75
29371;BME280;16357;52.188;7.838;2023-05-20T08:41:57;101608.69;;;19.06;40.52
29371;BME280;16357;52.188;7.838;2023-05-20T08:44:24;101599.34;;;19.16;40.33
29371;BME280;16357;52.188;7.838;2023-05-20T08:46:52;101606.38;;;19.25;40.21
29371;BME280;16357;52.188;7.838;2023-05-20T08:49:19;101608.50;;;19.29;39.76
29371;BME280;16357;52.188;7.838;2023-05-20T08:51:45;101599.59;;;19.36;39.50
29371;BME280;16357;52.188;7.838;2023-05-20T08:54:14;101612.13;;;19.37;39.58
29371;BME280;16357;52.188;7.838;2023-05-20T08:56:42;101596.66;;;19.37;39.78
29371;BME280;16357;52.188;7.838;2023-05-20T08:59:09;101606.53;;;19.38;39.92
29371;BME280;16357;52.188;7.838;2023-05-20T09:01:40;101600.03;;;19.39;39.55
29371;BME280;16357;52.188;7.838;2023-05-20T09:04:08;101595.41;;;19.40;39.75
29371;BME280;16357;52.188;7.838;2023-05-20T09:06:42;101607.13;;;19.40;39.52
29371;BME280;16357;52.188;7.838;2023-05-20T09:09:10;101606.13;;;19.41;39.61
29371;BME280;16357;52.188;7.838;2023-05-20T09:11:38;101589.97;;;19.40;39.40
29371;BME280;16357;52.188;7.838;2023-05-20T09:14:05;101595.41;;;19.40;39.41
29371;BME280;16357;52.188;7.838;2023-05-20T09:16:32;101591.69;;;19.41;39.92
29371;BME280;16357;52.188;7.838;2023-05-20T09:18:59;101589.41;;;19.44;40.16
29371;BME280;16357;52.188;7.838;2023-05-20T09:21:26;101591.16;;;19.52;40.24
29371;BME280;16357;52.188;7.838;2023-05-20T09:23:53;101592.06;;;19.59;39.85
29371;BME280;16357;52.188;7.838;2023-05-20T09:26:22;101586.53;;;19.67;39.69
29371;BME280;16357;52.188;7.838;2023-05-20T09:28:50;101589.09;;;19.76;39.67
29371;BME280;16357;52.188;7.838;2023-05-20T09:31:16;101574.28;;;19.85;39.34
29371;BME280;16357;52.188;7.838;2023-05-20T09:33:43;101583.38;;;19.92;38.82
29371;BME280;16357;52.188;7.838;2023-05-20T09:36:09;101569.16;;;19.97;38.99
29371;BME280;16357;52.188;7.838;2023-05-20T09:38:37;101572.13;;;20.02;38.59
29371;BME280;16357;52.188;7.838;2023-05-20T09:41:12;101572.56;;;20.05;38.74
29371;BME280;16357;52.188;7.838;2023-05-20T09:43:39;101563.59;;;20.11;39.20
29371;BME280;16357;52.188;7.838;2023-05-20T09:46:06;101552.56;;;20.20;38.88
29371;BME280;16357;52.188;7.838;2023-05-20T09:48:36;101562.06;;;20.30;39.23
29371;BME280;16357;52.188;7.838;2023-05-20T09:51:04;101548.69;;;20.42;38.86
29371;BME280;16357;52.188;7.838;2023-05-20T09:53:31;101548.78;;;20.55;38.85
29371;BME280;16357;52.188;7.838;2023-05-20T09:55:57;101542.34;;;20.70;38.54
29371;BME280;16357;52.188;7.838;2023-05-20T09:58:24;101548.69;;;20.83;37.67
29371;BME280;16357;52.188;7.838;2023-05-20T10:00:51;101539.06;;;20.94;37.01
29371;BME280;16357;52.188;7.838;2023-05-20T10:03:21;101545.41;;;21.01;37.00
29371;BME280;16357;52.188;7.838;2023-05-20T10:08:42;101533.66;;;21.14;36.56
29371;BME280;16357;52.188;7.838;2023-05-20T10:11:21;101534.50;;;21.21;36.70
29371;BME280;16357;52.188;7.838;2023-05-20T10:14:10;101538.28;;;21.27;36.97
29371;BME280;16357;52.188;7.838;2023-05-20T10:16:48;101536.22;;;21.36;36.47
29371;BME280;16357;52.188;7.838;2023-05-20T10:19:26;101545.06;;;21.44;36.03
29371;BME280;16357;52.188;7.838;2023-05-20T10:24:42;101538.16;;;21.48;35.86
29371;BME280;16357;52.188;7.838;2023-05-20T10:27:13;101532.47;;;21.50;35.06
29371;BME280;16357;52.188;7.838;2023-05-20T10:29:51;101530.81;;;21.49;35.35
29371;BME280;16357;52.188;7.838;2023-05-20T10:32:31;101524.50;;;21.48;35.26
29371;BME280;16357;52.188;7.838;2023-05-20T10:35:00;101533.31;;;21.44;34.50
29371;BME280;16357;52.188;7.838;2023-05-20T10:37:28;101523.84;;;21.40;34.57
29371;BME280;16357;52.188;7.838;2023-05-20T10:40:11;101511.44;;;21.37;35.22
29371;BME280;16357;52.188;7.838;2023-05-20T10:42:39;101520.69;;;21.36;35.12
29371;BME280;16357;52.188;7.838;2023-05-20T10:45:06;101523.84;;;21.40;35.52
29371;BME280;16357;52.188;7.838;2023-05-20T10:47:34;101526.16;;;21.43;35.20
29371;BME280;16357;52.188;7.838;2023-05-20T10:50:00;101522.63;;;21.49;35.20
29371;BME280;16357;52.188;7.838;2023-05-20T10:52:32;101515.47;;;21.55;34.90
29371;BME280;16357;52.188;7.838;2023-05-20T10:54:59;101513.78;;;21.60;35.00
29371;BME280;16357;52.188;7.838;2023-05-20T10:57:27;101520.28;;;21.66;34.65
29371;BME280;16357;52.188;7.838;2023-05-20T10:59:55;101507.69;;;21.72;34.87
29371;BME280;16357;52.188;7.838;2023-05-20T11:02:21;101500.53;;;21.77;34.83
29371;BME280;16357;52.188;7.838;2023-05-20T11:04:54;101488.97;;;21.82;34.62
29371;BME280;16357;52.188;7.838;2023-05-20T11:07:28;101491.06;;;21.86;34.94
29371;BME280;16357;52.188;7.838;2023-05-20T11:09:58;101480.53;;;21.90;34.86
29371;BME280;16357;52.188;7.838;2023-05-20T11:12:26;101484.94;;;21.98;35.24
29371;BME280;16357;52.188;7.838;2023-05-20T11:14:53;101483.69;;;22.07;34.92
29371;BME280;16357;52.188;7.838;2023-05-20T11:17:19;101471.44;;;22.16;35.09
29371;BME280;16357;52.188;7.838;2023-05-20T11:19:47;101468.91;;;22.28;34.63
29371;BME280;16357;52.188;7.838;2023-05-20T11:22:13;101462.53;;;22.41;34.99
29371;BME280;16357;52.188;7.838;2023-05-20T11:24:40;101463.97;;;22.50;33.99
29371;BME280;16357;52.188;7.838;2023-05-20T11:27:06;101460.16;;;22.57;34.13
29371;BME280;16357;52.188;7.838;2023-05-20T11:29:33;101459.50;;;22.62;33.92
29371;BME280;16357;52.188;7.838;2023-05-20T11:32:00;101463.69;;;22.65;33.83
29371;BME280;16357;52.188;7.838;2023-05-20T11:34:36;101458.22;;;22.65;33.67
29371;BME280;16357;52.188;7.838;2023-05-20T11:37:07;101459.91;;;22.66;33.48
29371;BME280;16357;52.188;7.838;2023-05-20T11:39:36;101456.31;;;22.65;33.44
29371;BME280;16357;52.188;7.838;2023-05-20T11:42:02;101444.94;;;22.68;33.53
29371;BME280;16357;52.188;7.838;2023-05-20T11:44:29;101448.50;;;22.75;33.96
29371;BME280;16357;52.188;7.838;2023-05-20T11:47:00;101443.78;;;22.83;32.79
29371;BME280;16357;52.188;7.838;2023-05-20T11:49:27;101463.13;;;22.88;32.89
29371;BME280;16357;52.188;7.838;2023-05-20T11:51:53;101462.06;;;22.89;32.89
29371;BME280;16357;52.188;7.838;2023-05-20T11:54:22;101460.19;;;22.89;33.45
29371;BME280;16357;52.188;7.838;2023-05-20T11:56:49;101464.56;;;22.90;33.25
29371;BME280;16357;52.188;7.838;2023-05-20T11:59:16;101463.53;;;22.91;33.31
29371;BME280;16357;52.188;7.838;2023-05-20T12:01:42;101466.03;;;22.93;32.96
29371;BME280;16357;52.188;7.838;2023-05-20T12:04:09;101454.47;;;22.97;32.88
29371;BME280;16357;52.188;7.838;2023-05-20T12:06:37;101460.94;;;23.03;32.91
29371;BME280;16357;52.188;7.838;2023-05-20T12:09:05;101454.59;;;23.09;32.91
29371;BME280;16357;52.188;7.838;2023-05-20T12:11:33;101438.94;;;23.16;33.02
29371;BME280;16357;52.188;7.838;2023-05-20T12:14:01;101446.88;;;23.25;32.97
29371;BME280;16357;52.188;7.838;2023-05-20T12:16:30;101457.34;;;23.34;32.87
29371;BME280;16357;52.188;7.838;2023-05-20T12:18:58;101459.34;;;23.45;32.68
29371;BME280;16357;52.188;7.838;2023-05-20T12:21:25;101452.28;;;23.56;32.70
29371;BME280;16357;52.188;7.838;2023-05-20T12:23:51;101443.56;;;23.66;32.38
29371;BME280;16357;52.188;7.838;2023-05-20T12:26:23;101444.75;;;23.77;32.21
29371;BME280;16357;52.188;7.838;2023-05-20T12:28:51;101434.56;;;23.84;32.07
29371;BME280;16357;52.188;7.838;2023-05-20T12:31:18;101432.59;;;23.91;31.99
29371;BME280;16357;52.188;7.838;2023-05-20T12:33:45;101441.56;;;23.98;32.00
29371;BME280;16357;52.188;7.838;2023-05-20T12:36:12;101439.78;;;24.04;31.89
29371;BME280;16357;52.188;7.838;2023-05-20T12:38:39;101433.41;;;24.10;32.15
29371;BME280;16357;52.188;7.838;2023-05-20T12:41:05;101433.31;;;24.17;31.89
29371;BME280;16357;52.188;7.838;2023-05-20T12:43:32;101427.41;;;24.20;31.67
29371;BME280;16357;52.188;7.838;2023-05-20T12:46:02;101427.97;;;24.22;31.93
29371;BME280;16357;52.188;7.838;2023-05-20T12:48:29;101429.91;;;24.21;31.34
29371;BME280;16357;52.188;7.838;2023-05-20T12:50:55;101425.72;;;24.19;31.40
29371;BME280;16357;52.188;7.838;2023-05-20T12:53:21;101422.44;;;24.10;31.13
29371;BME280;16357;52.188;7.838;2023-05-20T12:55:48;101418.94;;;24.03;31.53